Relevés horaires Ilanz (Suisse)


Relevés horaires à Ilanz - Mercredi 25 Juill. 2018
Heure UTC1 Température [°C] Vent [km/h] Hum. [%] Pres.4 [hPa] Visi. [Km] Nébu. [octa] Préc.5 [mm] Cond.
2m. Res. Ros. Dir.2 Vit. Moy. Raf.3
23:00 16.3 16.3 12.1 NNO 0.0 -- -- 76 850 -- -- -- --
22:00 18.8 18.8 12.0 NNO 0.0 -- -- 65 850 -- -- -- --
21:00 19.7 19.7 12.1 NNO 0.0 -- -- 62 850 -- -- -- --
20:00 21.2 21.2 12.4 NNO 0.0 -- -- 57 850 -- -- -- --
19:00 24.3 24.3 10.5 NNO 0.0 -- -- 42 850 -- -- -- --
18:00 26.9 26.9 9.7 NNO 0.0 -- -- 34 850(0.3/3h) -- -- 0/12h
--
17:00 28.6 28.6 9.3 NNO 0.0 -- -- 30 850 -- -- -- --
16:00 29.7 29.7 9.0 NNO 0.0 -- -- 28 850 -- -- -- --
15:00 30.1 30.1 9.1 NNO 0.0 -- -- 27 850 -- -- -- --
14:00 29.6 29.6 8.1 NNO 0.0 -- -- 26 850 -- -- -- --
13:00 29.7 29.7 9.3 NNO 0.0 -- -- 28 850 -- -- -- --
12:00 28.8 28.8 9.6 NNO 0.0 -- -- 30 850(-1.5/3h) -- -- -- --
11:00 28.3 28.3 10.8 NNO 0.0 -- -- 34 850 -- -- -- --
10:00 27.2 27.2 12.2 NNO 0.0 -- -- 39 850 -- -- -- --
09:00 24.4 24.4 12.2 NNO 0.0 -- -- 47 850 -- -- -- --
08:00 21.6 21.6 12.8 NNO 0.0 -- -- 57 850 -- -- -- --
07:00 18.8 18.8 12.6 NNO 0.0 -- -- 67 850 -- -- -- --
06:00 16.6 16.6 12.7 NNO 0.0 -- -- 78 850(0.6/3h) -- -- 0/12h
0/24h
--
05:00 14.4 14.4 12.7 NNO 0.0 -- -- 90 850 -- -- -- --
04:00 13.2 13.2 12.0 NNO 0.0 -- -- 92 850 -- -- -- --
03:00 13.2 13.2 11.9 NNO 0.0 -- -- 92 850 -- -- -- --
02:00 13.8 13.8 12.3 NNO 0.0 -- -- 91 850 -- -- -- --
01:00 14.1 14.1 12.4 NNO 0.0 -- -- 89 850 -- -- -- --
00:00 15.9 15.9 13.0 NNO 0.0 -- -- 83 850(1.0/3h) -- -- -- --

1 Coordinated Universal Time. Actuellement il est 00:00 locale et 22:00 UTC.

2 Le vent souffle depuis la direction indiquée vers la direction oposée.

3 Les rafales max. sont disponible 40 min après l'heure du relevé.

4 Pour les stations d'altitude (plus de 600m) le géopotentiel du niveau le plus proche de la pression obligatoire est indiqué.

5 Les stations disposant d'un diffuseur peuvent indiquer "trace". Cela signifie que des précipitations ont touchés le sol mais que la quantité est inférieure à 0.1 mm.

Copyright

Les données affichées sur cette page sont la propriété exclusive de Météo Suisse.

Récapitulatif de la journée
Température [°C] Vent [km/h] Ensoleillement4 [h] Precipitations totale5 [mm] Pression [Hpa]
Min1 Max.2 Moy.3 Max. Min Max.
12.6 30.1 0 -- 13 h 6 min 0 850.0 850.0

1 Température minimale relevée entre 18:00 UTC la veille et 18:00 UTC le jour donné.

2 Température maximale relevée entre 06:00 UTC le jour donné et 06:00 UTC le lendemain.

3 Vent moyen de la journée basé sur les relevés horaires.

4 Ensoleillement en heures relevé entre 06:00 UTC la veille et 06:00 UTC le jour donné.

5 Précipitations totales tombées entre 06:00 UTC la jour donné et 06:00 UTC le lendemain.

Graphiques horaires